Latest Weather Observations for Burnie Port

IDT60801

Issued at 11:31 pm EST Saturday 23 May 2015 (issued every 30 minutes, with the page automatically refreshed every 10 minutes)

About weather observations | Map of weather stations | Latest weather observations for TAS | Other Formats
Station Details ID: 091344 Name: BURNIE NTC AWS Lat: -41.05 Lon: 145.91 Height: 0.0 m
Data from the previous 72 hours. | See also: Recent months for locations in Tasmania
Date/Time
EST
Temp
°C
App
Temp
°C
Dew
Point
Rel
Hum
%
Delta-T
°C
Wind Press
QNH
hPa
Press
MSL
hPa
Rain
since 9 am
mm
Dir
 
Spd
km/h
Gust
km/h
Spd
kts
Gust
kts
23/11:30pm 7.6 - - - - SSW 20 24 11 13 1028.7 1028.7 -
23/11:00pm 8.2 - - - - SSW 20 26 11 14 1028.6 1028.6 -
23/10:30pm 8.1 - - - - S 17 20 9 11 1028.8 1028.8 -
23/10:00pm 8.5 - - - - SSW 19 22 10 12 1028.7 1028.7 -
23/09:30pm 8.8 - - - - SSW 20 26 11 14 1028.5 1028.5 -
23/09:00pm 9.2 - - - - SSW 19 24 10 13 1028.6 1028.6 -
23/08:30pm 9.6 - - - - SSW 20 30 11 16 1028.5 1028.5 -
23/08:00pm 9.9 - - - - SW 20 28 11 15 1028.4 1028.4 -
23/07:30pm 9.9 - - - - SSW 24 30 13 16 1028.3 1028.3 -
23/07:00pm 10.3 - - - - SSW 22 32 12 17 1028.2 1028.2 -
23/06:30pm 10.5 - - - - SW 20 28 11 15 1028.1 1028.1 -
23/06:00pm 10.7 - - - - SW 9 15 5 8 1028.2 1028.2 -
23/05:30pm 11.2 - - - - WSW 15 20 8 11 1028.1 1028.1 -
23/05:00pm 12.1 - - - - W 13 19 7 10 1028.0 1028.0 -
23/04:30pm 12.7 - - - - WSW 17 28 9 15 1028.0 1028.0 -
23/04:00pm 13.4 - - - - WSW 15 22 8 12 1027.9 1027.9 -
23/03:30pm 14.0 - - - - WSW 11 20 6 11 1027.8 1027.8 -
23/03:00pm 14.0 - - - - WSW 13 28 7 15 1027.6 1027.6 -
23/02:30pm 14.0 - - - - SW 20 32 11 17 1027.7 1027.7 -
23/02:00pm 14.1 - - - - WSW 15 30 8 16 1027.8 1027.8 -
23/01:30pm 14.0 - - - - WSW 13 24 7 13 1027.9 1027.9 -
23/01:00pm 13.8 - - - - WSW 13 24 7 13 1028.1 1028.1 -
23/12:30pm 13.4 - - - - WSW 17 26 9 14 1028.2 1028.2 -
23/12:00pm 13.1 - - - - SW 15 30 8 16 1028.5 1028.5 -
23/11:30am 12.7 - - - - WSW 15 22 8 12 1028.9 1028.9 -
23/11:00am 12.3 - - - - SW 11 19 6 10 1029.5 1029.5 -
23/10:30am 11.7 - - - - WSW 4 13 2 7 1029.5 1029.5 -
23/10:00am 10.9 - - - - N 9 11 5 6 1029.5 1029.5 -
23/09:30am 10.5 - - - - N 4 9 2 5 1029.6 1029.6 -
23/09:00am 10.0 - - - - N 2 6 1 3 1029.5 1029.5 -
23/08:30am 9.3 - - - - NW 6 9 3 5 1029.3 1029.3 -
23/08:00am 8.1 - - - - SW 2 7 1 4 1028.9 1028.9 -
23/07:30am 6.4 - - - - SW 4 7 2 4 1028.6 1028.6 -
23/07:00am 7.7 - - - - WNW 9 11 5 6 1028.6 1028.6 -
23/06:30am 7.8 - - - - W 7 9 4 5 1028.4 1028.4 -
23/06:00am 7.5 - - - - WSW 7 11 4 6 1028.2 1028.2 -
23/05:30am 7.5 - - - - W 9 15 5 8 1028.1 1028.1 -
23/05:00am 7.7 - - - - WNW 6 9 3 5 1028.0 1028.0 -
23/04:30am 7.9 - - - - W 11 15 6 8 1028.1 1028.1 -
23/04:00am 7.9 - - - - WSW 22 30 12 16 1027.7 1027.7 -
23/03:30am 8.3 - - - - WSW 22 30 12 16 1027.6 1027.6 -
23/03:00am 7.8 - - - - W 15 22 8 12 1027.9 1027.9 -
23/02:30am 7.9 - - - - W 13 20 7 11 1028.1 1028.1 -
23/02:00am 8.0 - - - - WNW 15 20 8 11 1028.1 1028.1 -
23/01:30am 8.4 - - - - WNW 15 22 8 12 1028.2 1028.2 -
23/01:00am 8.5 - - - - W 15 20 8 11 1028.2 1028.2 -
23/12:30am 8.6 - - - - W 15 20 8 11 1028.3 1028.3 -
23/12:00am 8.8 - - - - W 11 15 6 8 1028.8 1028.8 -
 
Date/Time
EST
Temp
°C
App
Temp
°C
Dew
Point
Rel
Hum
%
Delta-T
°C
Wind Press
QNH
hPa
Press
MSL
hPa
Rain
since 9 am
mm
Dir
 
Spd
km/h
Gust
km/h
Spd
kts
Gust
kts
22/11:30pm 8.6 - - - - WNW 9 13 5 7 1028.7 1028.7 -
22/11:00pm 8.7 - - - - W 11 13 6 7 1028.7 1028.7 -
22/10:30pm 8.5 - - - - WSW 7 13 4 7 1028.9 1028.9 -
22/10:00pm 8.2 - - - - W 13 20 7 11 1029.1 1029.1 -
22/09:30pm 8.1 - - - - WNW 11 22 6 12 1029.0 1029.0 -
22/09:00pm 8.3 - - - - WNW 13 19 7 10 1029.0 1029.0 -
22/08:30pm 8.6 - - - - W 11 17 6 9 1029.1 1029.1 -
22/08:00pm 9.1 - - - - W 11 17 6 9 1029.2 1029.2 -
22/07:30pm 9.2 - - - - WSW 13 19 7 10 1029.0 1029.0 -
22/07:00pm 9.3 - - - - WSW 13 20 7 11 1028.7 1028.7 -
22/06:30pm 9.3 - - - - SW 19 26 10 14 1028.4 1028.4 -
22/06:00pm 9.7 - - - - SW 20 28 11 15 1028.2 1028.2 -
22/05:30pm 10.1 - - - - SW 22 35 12 19 1027.9 1027.9 -
22/05:00pm 10.5 - - - - SW 28 43 15 23 1027.5 1027.5 -
22/04:30pm 11.1 - - - - SW 24 35 13 19 1027.3 1027.3 -
22/04:00pm 11.6 - - - - SW 22 33 12 18 1027.2 1027.2 -
22/03:30pm 12.2 - - - - SSW 19 32 10 17 1027.2 1027.2 -
22/03:00pm 12.4 - - - - SSW 22 37 12 20 1027.0 1027.0 -
22/02:30pm 12.3 - - - - SW 20 32 11 17 1026.9 1026.9 -
22/02:00pm 12.2 - - - - SW 19 32 10 17 1027.0 1027.0 -
22/01:30pm 12.3 - - - - SSW 19 33 10 18 1027.2 1027.2 -
22/01:00pm 12.1 - - - - SSW 24 33 13 18 1027.3 1027.3 -
22/12:30pm 11.9 - - - - SW 17 30 9 16 1027.6 1027.6 -
22/12:00pm 11.8 - - - - SW 15 24 8 13 1027.9 1027.9 -
22/11:30am 11.1 - - - - SW 17 26 9 14 1028.4 1028.4 -
22/11:00am 11.0 - - - - SW 17 24 9 13 1028.8 1028.8 -
22/10:30am 10.6 - - - - SSW 19 28 10 15 1028.9 1028.9 -
22/10:00am 10.1 - - - - SW 17 28 9 15 1028.8 1028.8 -
22/09:30am 9.7 - - - - SW 17 24 9 13 1028.9 1028.9 -
22/09:00am 9.1 - - - - SSW 19 26 10 14 1029.0 1029.0 -
22/08:30am 8.5 - - - - SW 11 17 6 9 1028.9 1028.9 -
22/08:00am 7.8 - - - - SW 11 17 6 9 1028.7 1028.7 -
22/07:30am 8.1 - - - - SW 15 22 8 12 1028.7 1028.7 -
22/07:00am 7.8 - - - - SW 19 24 10 13 1028.5 1028.5 -
22/06:30am 7.8 - - - - SW 22 32 12 17 1028.3 1028.3 -
22/06:00am 7.6 - - - - SW 19 28 10 15 1027.9 1027.9 -
22/05:30am 7.7 - - - - SW 7 17 4 9 1027.9 1027.9 -
22/05:00am 7.7 - - - - S 9 19 5 10 1027.8 1027.8 -
22/04:30am 8.3 - - - - SSW 7 13 4 7 1027.9 1027.9 -
22/04:00am 8.8 - - - - SW 7 9 4 5 1027.7 1027.7 -
22/03:30am 9.2 - - - - SW 11 15 6 8 1027.8 1027.8 -
22/03:00am 9.9 - - - - SSW 7 20 4 11 1027.9 1027.9 -
22/02:30am 10.1 - - - - S 2 4 1 2 1027.9 1027.9 -
22/02:00am 10.0 - - - - SSW 6 7 3 4 1027.9 1027.9 -
22/01:30am 10.3 - - - - SSW 4 6 2 3 1027.9 1027.9 -
22/01:00am 10.1 - - - - S 6 7 3 4 1027.8 1027.8 -
22/12:30am 10.5 - - - - SSE 9 13 5 7 1027.8 1027.8 -
22/12:00am 10.7 - - - - S 9 13 5 7 1028.0 1028.0 -
 
Date/Time
EST
Temp
°C
App
Temp
°C
Dew
Point
Rel
Hum
%
Delta-T
°C
Wind Press
QNH
hPa
Press
MSL
hPa
Rain
since 9 am
mm
Dir
 
Spd
km/h
Gust
km/h
Spd
kts
Gust
kts
21/11:30pm 10.7 - - - - SSE 7 11 4 6 1027.9 1027.9 -
21/11:00pm 10.9 - - - - S 7 9 4 5 1027.9 1027.9 -
21/10:30pm 11.0 - - - - SSE 7 9 4 5 1027.9 1027.9 -
21/10:00pm 11.3 - - - - S 9 13 5 7 1027.8 1027.8 -
21/09:30pm 11.4 - - - - S 9 15 5 8 1027.6 1027.6 -
21/09:00pm 11.6 - - - - SE 17 22 9 12 1027.5 1027.5 -
21/08:30pm 11.7 - - - - SE 15 20 8 11 1027.2 1027.2 -
21/08:00pm 11.7 - - - - S 9 13 5 7 1027.2 1027.2 -
21/07:30pm 11.8 - - - - S 9 13 5 7 1027.0 1027.0 -
21/07:00pm 12.0 - - - - S 7 11 4 6 1026.7 1026.7 -
21/06:30pm 11.2 - - - - SSW 7 9 4 5 1026.5 1026.5 -
21/06:00pm 11.8 - - - - SSW 4 6 2 3 1026.2 1026.2 -
21/05:30pm 13.0 - - - - ENE 6 9 3 5 1025.7 1025.7 -
21/05:00pm 13.0 - - - - SW 4 7 2 4 1025.4 1025.4 -
21/04:30pm 13.0 - - - - ENE 9 13 5 7 1025.0 1025.0 -
21/04:00pm 13.0 - - - - E 9 13 5 7 1024.8 1024.8 -
21/03:30pm 12.9 - - - - E 9 13 5 7 1024.5 1024.5 -
21/03:00pm 12.8 - - - - E 11 17 6 9 1024.2 1024.2 -
21/02:30pm 12.6 - - - - E 13 17 7 9 1024.0 1024.0 -
21/02:00pm 12.4 - - - - E 13 19 7 10 1023.8 1023.8 -
21/01:30pm 12.3 - - - - E 19 22 10 12 1023.6 1023.6 -
21/01:00pm 12.2 - - - - E 19 24 10 13 1023.7 1023.7 -
21/12:30pm 12.2 - - - - E 20 26 11 14 1023.7 1023.7 -
21/12:00pm 12.1 - - - - ESE 24 28 13 15 1023.9 1023.9 -
21/11:30am 11.3 - - - - E 17 20 9 11 1024.2 1024.2 -
21/11:00am 10.9 - - - - E 7 11 4 6 1024.2 1024.2 -
21/10:30am 11.2 - - - - ENE 4 7 2 4 1024.0 1024.0 -
21/10:00am 11.2 - - - - ESE 4 6 2 3 1023.6 1023.6 -

Other Formats:

Comma delimited format used in spreadsheet applications
http://www.bom.gov.au/fwo/IDT60801/IDT60801.95963.axf

JavaScript Object Notation format (JSON) in row-major order
http://www.bom.gov.au/fwo/IDT60801/IDT60801.95963.json